sensor_id;sensor_type;location;lat;lon;timestamp;pressure;altitude;pressure_sealevel;temperature;humidity
43147;BME280;28752;48.266;7.402;2023-01-31T00:01:06;100593.75;;;1.14;92.88
43147;BME280;28752;48.266;7.402;2023-01-31T00:03:32;100560.75;;;1.13;92.61
43147;BME280;28752;48.266;7.402;2023-01-31T00:05:58;100575.44;;;1.16;92.56
43147;BME280;28752;48.266;7.402;2023-01-31T00:08:23;100566.91;;;1.11;92.56
43147;BME280;28752;48.266;7.402;2023-01-31T00:10:48;100573.94;;;1.09;92.95
43147;BME280;28752;48.266;7.402;2023-01-31T00:13:14;100581.06;;;1.05;93.55
43147;BME280;28752;48.266;7.402;2023-01-31T00:15:39;100567.53;;;1.17;92.76
43147;BME280;28752;48.266;7.402;2023-01-31T00:18:05;100571.53;;;1.04;92.73
43147;BME280;28752;48.266;7.402;2023-01-31T00:20:30;100558.00;;;0.93;92.90
43147;BME280;28752;48.266;7.402;2023-01-31T00:22:57;100573.13;;;1.08;93.46
43147;BME280;28752;48.266;7.402;2023-01-31T00:25:22;100569.09;;;0.99;93.42
43147;BME280;28752;48.266;7.402;2023-01-31T00:27:47;100561.66;;;0.88;93.24
43147;BME280;28752;48.266;7.402;2023-01-31T00:30:13;100575.31;;;0.95;93.15
43147;BME280;28752;48.266;7.402;2023-01-31T00:32:38;100564.31;;;0.87;93.37
43147;BME280;28752;48.266;7.402;2023-01-31T00:35:04;100564.16;;;0.92;93.88
43147;BME280;28752;48.266;7.402;2023-01-31T00:37:29;100552.84;;;0.91;93.89
43147;BME280;28752;48.266;7.402;2023-01-31T00:39:55;100545.47;;;0.79;94.14
43147;BME280;28752;48.266;7.402;2023-01-31T00:42:20;100555.75;;;0.83;94.57
43147;BME280;28752;48.266;7.402;2023-01-31T00:44:45;100560.06;;;0.84;94.40
43147;BME280;28752;48.266;7.402;2023-01-31T00:47:10;100546.25;;;0.82;94.31
43147;BME280;28752;48.266;7.402;2023-01-31T00:49:36;100558.94;;;0.92;94.28
43147;BME280;28752;48.266;7.402;2023-01-31T00:52:01;100550.19;;;1.16;96.29
43147;BME280;28752;48.266;7.402;2023-01-31T00:54:27;100550.06;;;1.19;98.45
43147;BME280;28752;48.266;7.402;2023-01-31T00:56:52;100547.63;;;1.38;98.73
43147;BME280;28752;48.266;7.402;2023-01-31T00:59:17;100552.81;;;1.60;99.11
43147;BME280;28752;48.266;7.402;2023-01-31T01:01:43;100555.25;;;1.65;98.71
43147;BME280;28752;48.266;7.402;2023-01-31T01:04:08;100553.84;;;1.78;98.54
43147;BME280;28752;48.266;7.402;2023-01-31T01:06:34;100546.84;;;1.79;98.33
43147;BME280;28752;48.266;7.402;2023-01-31T01:08:59;100553.75;;;2.02;96.86
43147;BME280;28752;48.266;7.402;2023-01-31T01:11:27;100553.56;;;2.07;95.93
43147;BME280;28752;48.266;7.402;2023-01-31T01:13:53;100529.19;;;2.06;94.94
43147;BME280;28752;48.266;7.402;2023-01-31T01:16:30;100545.06;;;2.02;93.46
43147;BME280;28752;48.266;7.402;2023-01-31T01:18:57;100551.91;;;1.62;90.45
43147;BME280;28752;48.266;7.402;2023-01-31T01:21:29;100548.72;;;1.09;91.37
43147;BME280;28752;48.266;7.402;2023-01-31T01:23:56;100538.50;;;1.03;92.24
43147;BME280;28752;48.266;7.402;2023-01-31T01:26:25;100564.59;;;1.03;92.63
43147;BME280;28752;48.266;7.402;2023-01-31T01:28:50;100567.31;;;1.00;92.94
43147;BME280;28752;48.266;7.402;2023-01-31T01:31:17;100554.19;;;0.79;93.58
43147;BME280;28752;48.266;7.402;2023-01-31T01:33:44;100549.13;;;0.75;93.81
43147;BME280;28752;48.266;7.402;2023-01-31T01:36:12;100537.66;;;0.55;94.44
43147;BME280;28752;48.266;7.402;2023-01-31T01:38:40;100546.63;;;0.72;94.26
43147;BME280;28752;48.266;7.402;2023-01-31T01:41:06;100536.72;;;0.32;95.69
43147;BME280;28752;48.266;7.402;2023-01-31T01:46:04;100569.78;;;0.30;96.55
43147;BME280;28752;48.266;7.402;2023-01-31T01:48:29;100570.69;;;0.29;96.56
43147;BME280;28752;48.266;7.402;2023-01-31T01:50:55;100576.94;;;0.24;96.72
43147;BME280;28752;48.266;7.402;2023-01-31T01:53:24;100553.78;;;0.16;96.72
43147;BME280;28752;48.266;7.402;2023-01-31T01:55:57;100569.13;;;0.24;96.34
43147;BME280;28752;48.266;7.402;2023-01-31T01:58:30;100566.16;;;0.09;96.91
43147;BME280;28752;48.266;7.402;2023-01-31T02:00:58;100558.84;;;-0.06;97.63
43147;BME280;28752;48.266;7.402;2023-01-31T02:03:24;100559.34;;;-0.22;97.77
43147;BME280;28752;48.266;7.402;2023-01-31T02:05:53;100567.91;;;-0.18;98.81
43147;BME280;28752;48.266;7.402;2023-01-31T02:08:22;100572.34;;;-0.22;98.49
43147;BME280;28752;48.266;7.402;2023-01-31T02:10:55;100566.56;;;-0.30;98.81
43147;BME280;28752;48.266;7.402;2023-01-31T02:13:23;100566.81;;;-0.38;99.54
43147;BME280;28752;48.266;7.402;2023-01-31T02:15:49;100574.50;;;-0.34;99.62
43147;BME280;28752;48.266;7.402;2023-01-31T02:18:15;100567.75;;;-0.40;99.77
43147;BME280;28752;48.266;7.402;2023-01-31T02:31:41;100587.09;;;-0.49;100.00
43147;BME280;28752;48.266;7.402;2023-01-31T02:37:33;100585.63;;;-0.58;100.00
43147;BME280;28752;48.266;7.402;2023-01-31T02:42:42;100585.78;;;-0.64;100.00
43147;BME280;28752;48.266;7.402;2023-01-31T02:45:19;100589.28;;;-0.63;100.00
43147;BME280;28752;48.266;7.402;2023-01-31T02:48:06;100588.44;;;-0.65;100.00
43147;BME280;28752;48.266;7.402;2023-01-31T02:53:17;100583.19;;;-0.64;100.00
43147;BME280;28752;48.266;7.402;2023-01-31T02:58:35;100569.50;;;-0.69;100.00
43147;BME280;28752;48.266;7.402;2023-01-31T03:01:03;100566.13;;;-0.73;100.00
43147;BME280;28752;48.266;7.402;2023-01-31T03:03:34;100582.22;;;-0.60;100.00
43147;BME280;28752;48.266;7.402;2023-01-31T03:08:51;100576.63;;;-0.47;100.00
43147;BME280;28752;48.266;7.402;2023-01-31T03:11:18;100584.47;;;-0.49;100.00
43147;BME280;28752;48.266;7.402;2023-01-31T03:16:27;100577.34;;;-0.42;100.00
43147;BME280;28752;48.266;7.402;2023-01-31T03:19:39;100581.94;;;-0.50;99.74
43147;BME280;28752;48.266;7.402;2023-01-31T03:22:10;100585.75;;;-0.34;99.58
43147;BME280;28752;48.266;7.402;2023-01-31T03:24:41;100586.84;;;-0.41;98.99
43147;BME280;28752;48.266;7.402;2023-01-31T03:27:08;100565.28;;;-0.45;98.94
43147;BME280;28752;48.266;7.402;2023-01-31T03:29:35;100572.91;;;-0.39;98.92
43147;BME280;28752;48.266;7.402;2023-01-31T03:32:07;100577.16;;;-0.36;99.21
43147;BME280;28752;48.266;7.402;2023-01-31T03:34:34;100561.69;;;-0.41;99.24
43147;BME280;28752;48.266;7.402;2023-01-31T03:37:10;100578.75;;;-0.32;99.17
43147;BME280;28752;48.266;7.402;2023-01-31T03:39:54;100572.56;;;-0.28;99.03
43147;BME280;28752;48.266;7.402;2023-01-31T03:45:03;100569.53;;;-0.42;98.53
43147;BME280;28752;48.266;7.402;2023-01-31T03:47:34;100567.28;;;-0.53;98.50
43147;BME280;28752;48.266;7.402;2023-01-31T03:50:08;100577.75;;;-0.55;98.75
43147;BME280;28752;48.266;7.402;2023-01-31T03:55:30;100585.75;;;-0.62;98.72
43147;BME280;28752;48.266;7.402;2023-01-31T03:57:58;100583.44;;;-0.72;98.86
43147;BME280;28752;48.266;7.402;2023-01-31T04:00:26;100582.59;;;-0.72;99.44
43147;BME280;28752;48.266;7.402;2023-01-31T04:02:59;100575.72;;;-0.75;100.00
43147;BME280;28752;48.266;7.402;2023-01-31T04:05:28;100562.16;;;-0.84;100.00
43147;BME280;28752;48.266;7.402;2023-01-31T04:07:57;100573.75;;;-0.66;100.00
43147;BME280;28752;48.266;7.402;2023-01-31T04:10:23;100565.34;;;-0.76;99.76
43147;BME280;28752;48.266;7.402;2023-01-31T04:12:50;100562.06;;;-0.81;99.31
43147;BME280;28752;48.266;7.402;2023-01-31T04:15:16;100577.56;;;-0.78;99.16
43147;BME280;28752;48.266;7.402;2023-01-31T04:17:42;100580.16;;;-0.78;99.00
43147;BME280;28752;48.266;7.402;2023-01-31T04:20:08;100582.69;;;-0.75;99.27
43147;BME280;28752;48.266;7.402;2023-01-31T04:22:34;100584.47;;;-0.77;98.85
43147;BME280;28752;48.266;7.402;2023-01-31T04:25:00;100584.31;;;-0.71;99.35
43147;BME280;28752;48.266;7.402;2023-01-31T04:27:26;100589.31;;;-0.65;98.99
43147;BME280;28752;48.266;7.402;2023-01-31T04:29:51;100585.03;;;-0.67;98.72
43147;BME280;28752;48.266;7.402;2023-01-31T04:32:17;100601.34;;;-0.61;98.71
43147;BME280;28752;48.266;7.402;2023-01-31T04:34:42;100590.09;;;-0.63;98.93
43147;BME280;28752;48.266;7.402;2023-01-31T04:37:07;100579.97;;;-0.72;99.11
43147;BME280;28752;48.266;7.402;2023-01-31T04:39:33;100598.69;;;-0.59;99.38
43147;BME280;28752;48.266;7.402;2023-01-31T04:41:58;100591.78;;;-0.60;98.89
43147;BME280;28752;48.266;7.402;2023-01-31T04:44:23;100592.91;;;-0.69;99.01
43147;BME280;28752;48.266;7.402;2023-01-31T04:46:49;100604.56;;;-0.52;98.43
43147;BME280;28752;48.266;7.402;2023-01-31T04:49:14;100581.66;;;-0.69;98.26
43147;BME280;28752;48.266;7.402;2023-01-31T04:51:40;100584.34;;;-0.73;98.33
43147;BME280;28752;48.266;7.402;2023-01-31T04:54:06;100602.47;;;-0.69;98.07
43147;BME280;28752;48.266;7.402;2023-01-31T04:56:31;100595.28;;;-0.91;98.18
43147;BME280;28752;48.266;7.402;2023-01-31T04:58:57;100591.16;;;-0.98;98.82
43147;BME280;28752;48.266;7.402;2023-01-31T05:01:23;100595.47;;;-0.99;98.55
43147;BME280;28752;48.266;7.402;2023-01-31T05:03:48;100597.56;;;-1.10;98.94
43147;BME280;28752;48.266;7.402;2023-01-31T05:06:13;100597.72;;;-1.16;99.11
43147;BME280;28752;48.266;7.402;2023-01-31T05:08:39;100601.94;;;-1.12;99.09
43147;BME280;28752;48.266;7.402;2023-01-31T05:11:04;100601.00;;;-1.10;98.73
43147;BME280;28752;48.266;7.402;2023-01-31T05:13:32;100590.19;;;-1.26;99.27
43147;BME280;28752;48.266;7.402;2023-01-31T05:15:57;100598.16;;;-1.32;99.48
43147;BME280;28752;48.266;7.402;2023-01-31T05:18:24;100588.16;;;-1.47;99.65
43147;BME280;28752;48.266;7.402;2023-01-31T05:20:49;100593.38;;;-1.47;99.76
43147;BME280;28752;48.266;7.402;2023-01-31T05:23:18;100607.78;;;-1.37;99.29
43147;BME280;28752;48.266;7.402;2023-01-31T05:25:44;100596.72;;;-1.44;99.53
43147;BME280;28752;48.266;7.402;2023-01-31T05:28:09;100600.44;;;-1.21;100.00
43147;BME280;28752;48.266;7.402;2023-01-31T05:30:35;100588.28;;;-1.20;100.00
43147;BME280;28752;48.266;7.402;2023-01-31T05:33:01;100591.91;;;-1.26;100.00
43147;BME280;28752;48.266;7.402;2023-01-31T05:35:27;100611.59;;;-1.17;100.00
43147;BME280;28752;48.266;7.402;2023-01-31T05:37:53;100622.16;;;-1.23;100.00
43147;BME280;28752;48.266;7.402;2023-01-31T05:40:19;100599.88;;;-1.32;100.00
43147;BME280;28752;48.266;7.402;2023-01-31T05:42:44;100625.63;;;-1.23;100.00
43147;BME280;28752;48.266;7.402;2023-01-31T05:45:11;100616.81;;;-1.17;100.00
43147;BME280;28752;48.266;7.402;2023-01-31T05:47:36;100630.81;;;-1.21;100.00
43147;BME280;28752;48.266;7.402;2023-01-31T05:50:02;100601.53;;;-1.30;100.00
43147;BME280;28752;48.266;7.402;2023-01-31T05:52:28;100619.66;;;-1.27;100.00
43147;BME280;28752;48.266;7.402;2023-01-31T05:54:53;100634.88;;;-1.13;100.00
43147;BME280;28752;48.266;7.402;2023-01-31T05:57:18;100612.91;;;-1.34;100.00
43147;BME280;28752;48.266;7.402;2023-01-31T05:59:44;100633.31;;;-1.18;100.00
43147;BME280;28752;48.266;7.402;2023-01-31T06:02:09;100628.19;;;-1.21;100.00
43147;BME280;28752;48.266;7.402;2023-01-31T06:04:38;100615.25;;;-1.25;100.00
43147;BME280;28752;48.266;7.402;2023-01-31T06:07:03;100630.13;;;-1.30;100.00
43147;BME280;28752;48.266;7.402;2023-01-31T06:09:28;100628.28;;;-1.26;100.00
43147;BME280;28752;48.266;7.402;2023-01-31T06:11:54;100629.88;;;-1.20;100.00
43147;BME280;28752;48.266;7.402;2023-01-31T06:14:19;100628.00;;;-1.14;100.00
43147;BME280;28752;48.266;7.402;2023-01-31T06:16:45;100628.91;;;-1.16;100.00
43147;BME280;28752;48.266;7.402;2023-01-31T06:19:10;100619.53;;;-1.22;100.00
43147;BME280;28752;48.266;7.402;2023-01-31T06:21:36;100617.19;;;-1.31;100.00
43147;BME280;28752;48.266;7.402;2023-01-31T06:24:01;100604.19;;;-1.31;100.00
43147;BME280;28752;48.266;7.402;2023-01-31T06:26:27;100609.47;;;-1.34;100.00
43147;BME280;28752;48.266;7.402;2023-01-31T06:28:52;100628.59;;;-1.37;100.00
43147;BME280;28752;48.266;7.402;2023-01-31T06:31:18;100630.47;;;-1.42;100.00
43147;BME280;28752;48.266;7.402;2023-01-31T06:33:43;100636.38;;;-1.37;100.00
43147;BME280;28752;48.266;7.402;2023-01-31T06:36:09;100617.75;;;-1.53;100.00
43147;BME280;28752;48.266;7.402;2023-01-31T06:38:34;100644.09;;;-1.34;100.00
43147;BME280;28752;48.266;7.402;2023-01-31T06:41:00;100641.81;;;-1.46;100.00
43147;BME280;28752;48.266;7.402;2023-01-31T06:43:25;100633.38;;;-1.54;100.00
43147;BME280;28752;48.266;7.402;2023-01-31T06:45:50;100642.13;;;-1.58;100.00
43147;BME280;28752;48.266;7.402;2023-01-31T06:48:16;100640.66;;;-1.69;100.00
43147;BME280;28752;48.266;7.402;2023-01-31T06:50:42;100651.03;;;-1.69;100.00
43147;BME280;28752;48.266;7.402;2023-01-31T06:53:08;100637.22;;;-1.69;100.00
43147;BME280;28752;48.266;7.402;2023-01-31T06:55:34;100653.44;;;-1.61;100.00
43147;BME280;28752;48.266;7.402;2023-01-31T06:57:59;100649.47;;;-1.74;100.00
43147;BME280;28752;48.266;7.402;2023-01-31T07:00:24;100652.88;;;-1.72;100.00
43147;BME280;28752;48.266;7.402;2023-01-31T07:02:51;100653.78;;;-1.75;100.00
43147;BME280;28752;48.266;7.402;2023-01-31T07:05:17;100657.25;;;-1.74;100.00
43147;BME280;28752;48.266;7.402;2023-01-31T07:07:42;100658.25;;;-1.80;100.00
43147;BME280;28752;48.266;7.402;2023-01-31T07:10:08;100651.47;;;-1.86;100.00
43147;BME280;28752;48.266;7.402;2023-01-31T07:12:34;100667.81;;;-1.81;100.00
43147;BME280;28752;48.266;7.402;2023-01-31T07:14:59;100670.81;;;-1.63;100.00
43147;BME280;28752;48.266;7.402;2023-01-31T07:17:25;100670.16;;;-1.71;100.00
43147;BME280;28752;48.266;7.402;2023-01-31T07:19:50;100676.97;;;-1.67;100.00
43147;BME280;28752;48.266;7.402;2023-01-31T07:22:15;100661.44;;;-1.69;100.00
43147;BME280;28752;48.266;7.402;2023-01-31T07:24:41;100651.13;;;-1.72;100.00
43147;BME280;28752;48.266;7.402;2023-01-31T07:27:07;100661.25;;;-1.61;100.00
43147;BME280;28752;48.266;7.402;2023-01-31T07:29:32;100660.25;;;-1.55;100.00
43147;BME280;28752;48.266;7.402;2023-01-31T07:31:57;100658.47;;;-1.53;100.00
43147;BME280;28752;48.266;7.402;2023-01-31T07:34:23;100662.84;;;-1.55;100.00
43147;BME280;28752;48.266;7.402;2023-01-31T07:36:49;100664.72;;;-1.61;100.00
43147;BME280;28752;48.266;7.402;2023-01-31T07:39:16;100670.75;;;-1.60;100.00
43147;BME280;28752;48.266;7.402;2023-01-31T07:41:42;100667.19;;;-1.56;100.00
43147;BME280;28752;48.266;7.402;2023-01-31T07:44:07;100669.75;;;-1.54;100.00
43147;BME280;28752;48.266;7.402;2023-01-31T07:46:35;100667.91;;;-1.51;100.00
43147;BME280;28752;48.266;7.402;2023-01-31T07:49:00;100686.13;;;-1.52;100.00
43147;BME280;28752;48.266;7.402;2023-01-31T07:51:26;100677.09;;;-1.37;100.00
43147;BME280;28752;48.266;7.402;2023-01-31T07:53:51;100651.13;;;-1.37;100.00
43147;BME280;28752;48.266;7.402;2023-01-31T07:56:18;100645.25;;;-1.44;100.00
43147;BME280;28752;48.266;7.402;2023-01-31T07:58:46;100661.53;;;-1.37;100.00
43147;BME280;28752;48.266;7.402;2023-01-31T08:01:22;100669.09;;;-1.30;100.00
43147;BME280;28752;48.266;7.402;2023-01-31T08:04:08;100663.78;;;-1.25;100.00
43147;BME280;28752;48.266;7.402;2023-01-31T08:06:34;100673.22;;;-1.21;100.00
43147;BME280;28752;48.266;7.402;2023-01-31T08:09:00;100661.06;;;-1.20;100.00
43147;BME280;28752;48.266;7.402;2023-01-31T08:11:26;100672.31;;;-1.18;100.00
43147;BME280;28752;48.266;7.402;2023-01-31T08:13:51;100671.25;;;-1.13;100.00
43147;BME280;28752;48.266;7.402;2023-01-31T08:16:17;100664.47;;;-1.17;100.00
43147;BME280;28752;48.266;7.402;2023-01-31T08:18:42;100679.94;;;-1.12;100.00
43147;BME280;28752;48.266;7.402;2023-01-31T08:21:11;100679.81;;;-1.08;100.00
43147;BME280;28752;48.266;7.402;2023-01-31T08:23:36;100675.28;;;-1.01;100.00
43147;BME280;28752;48.266;7.402;2023-01-31T08:26:06;100672.63;;;-0.99;100.00
43147;BME280;28752;48.266;7.402;2023-01-31T08:28:34;100683.75;;;-0.93;100.00
43147;BME280;28752;48.266;7.402;2023-01-31T08:30:59;100672.03;;;-0.78;100.00
43147;BME280;28752;48.266;7.402;2023-01-31T08:33:25;100669.31;;;-0.73;100.00
43147;BME280;28752;48.266;7.402;2023-01-31T08:35:50;100664.63;;;-0.60;100.00
43147;BME280;28752;48.266;7.402;2023-01-31T08:38:16;100685.69;;;-0.40;100.00
43147;BME280;28752;48.266;7.402;2023-01-31T08:40:41;100682.09;;;-0.36;100.00
43147;BME280;28752;48.266;7.402;2023-01-31T08:43:08;100676.28;;;-0.15;99.80
43147;BME280;28752;48.266;7.402;2023-01-31T08:45:34;100688.59;;;-0.21;99.22
43147;BME280;28752;48.266;7.402;2023-01-31T08:48:00;100675.22;;;-0.08;99.04
43147;BME280;28752;48.266;7.402;2023-01-31T08:50:27;100690.66;;;-0.02;98.88
43147;BME280;28752;48.266;7.402;2023-01-31T08:52:58;100677.31;;;-0.20;99.77
43147;BME280;28752;48.266;7.402;2023-01-31T08:55:28;100686.63;;;-0.12;100.00
43147;BME280;28752;48.266;7.402;2023-01-31T08:57:54;100686.56;;;-0.11;100.00
43147;BME280;28752;48.266;7.402;2023-01-31T09:00:20;100686.22;;;0.02;100.00
43147;BME280;28752;48.266;7.402;2023-01-31T09:02:59;100680.50;;;0.17;99.60
43147;BME280;28752;48.266;7.402;2023-01-31T09:05:28;100678.06;;;0.12;99.43
43147;BME280;28752;48.266;7.402;2023-01-31T09:07:54;100665.72;;;0.17;98.80
43147;BME280;28752;48.266;7.402;2023-01-31T09:10:20;100677.56;;;0.28;98.46
43147;BME280;28752;48.266;7.402;2023-01-31T09:12:46;100670.53;;;0.30;98.61
43147;BME280;28752;48.266;7.402;2023-01-31T09:15:12;100672.72;;;0.42;98.21
43147;BME280;28752;48.266;7.402;2023-01-31T09:17:38;100681.06;;;0.53;97.11
43147;BME280;28752;48.266;7.402;2023-01-31T09:20:05;100682.63;;;0.58;97.47
43147;BME280;28752;48.266;7.402;2023-01-31T09:22:32;100683.31;;;0.64;97.16
43147;BME280;28752;48.266;7.402;2023-01-31T09:24:59;100685.03;;;0.65;96.54
43147;BME280;28752;48.266;7.402;2023-01-31T09:27:25;100684.44;;;0.82;96.42
43147;BME280;28752;48.266;7.402;2023-01-31T09:29:50;100685.28;;;0.83;95.87
43147;BME280;28752;48.266;7.402;2023-01-31T09:32:16;100679.38;;;0.78;95.59
43147;BME280;28752;48.266;7.402;2023-01-31T09:34:41;100680.06;;;0.83;95.26
43147;BME280;28752;48.266;7.402;2023-01-31T09:37:07;100682.66;;;0.83;94.93
43147;BME280;28752;48.266;7.402;2023-01-31T09:39:32;100681.06;;;0.79;94.98
43147;BME280;28752;48.266;7.402;2023-01-31T09:42:27;100681.97;;;1.03;95.05
43147;BME280;28752;48.266;7.402;2023-01-31T09:45:03;100674.47;;;1.19;95.07
43147;BME280;28752;48.266;7.402;2023-01-31T09:47:35;100674.34;;;1.22;95.14
43147;BME280;28752;48.266;7.402;2023-01-31T09:50:18;100681.66;;;1.36;94.84
43147;BME280;28752;48.266;7.402;2023-01-31T09:52:44;100678.22;;;1.35;95.10
43147;BME280;28752;48.266;7.402;2023-01-31T09:55:18;100654.50;;;1.41;94.88
43147;BME280;28752;48.266;7.402;2023-01-31T10:03:39;100677.28;;;2.06;94.12
43147;BME280;28752;48.266;7.402;2023-01-31T10:06:20;100682.31;;;2.10;93.92
43147;BME280;28752;48.266;7.402;2023-01-31T10:09:17;100684.09;;;2.10;94.41
43147;BME280;28752;48.266;7.402;2023-01-31T10:11:49;100696.41;;;2.28;93.73
43147;BME280;28752;48.266;7.402;2023-01-31T10:14:35;100695.50;;;2.29;93.70
43147;BME280;28752;48.266;7.402;2023-01-31T10:19:45;100690.34;;;2.28;91.39
43147;BME280;28752;48.266;7.402;2023-01-31T10:22:18;100666.44;;;2.37;91.21
43147;BME280;28752;48.266;7.402;2023-01-31T10:24:50;100689.13;;;2.57;90.25
43147;BME280;28752;48.266;7.402;2023-01-31T10:27:40;100686.00;;;2.49;90.97
43147;BME280;28752;48.266;7.402;2023-01-31T10:30:17;100695.50;;;2.72;90.40
43147;BME280;28752;48.266;7.402;2023-01-31T10:32:50;100694.31;;;2.79;90.36
43147;BME280;28752;48.266;7.402;2023-01-31T10:35:24;100693.53;;;2.98;90.24
43147;BME280;28752;48.266;7.402;2023-01-31T10:38:00;100695.47;;;3.13;89.14
43147;BME280;28752;48.266;7.402;2023-01-31T10:40:35;100685.47;;;3.02;88.42
43147;BME280;28752;48.266;7.402;2023-01-31T10:43:33;100686.06;;;3.09;88.76
43147;BME280;28752;48.266;7.402;2023-01-31T10:46:01;100681.75;;;2.88;88.27
43147;BME280;28752;48.266;7.402;2023-01-31T10:48:28;100663.31;;;3.11;87.02
43147;BME280;28752;48.266;7.402;2023-01-31T10:56:46;100671.53;;;3.80;83.14
43147;BME280;28752;48.266;7.402;2023-01-31T10:59:22;100664.66;;;3.58;85.96
43147;BME280;28752;48.266;7.402;2023-01-31T11:01:49;100668.94;;;3.42;87.04
43147;BME280;28752;48.266;7.402;2023-01-31T11:06:51;100674.31;;;3.58;86.93
43147;BME280;28752;48.266;7.402;2023-01-31T11:09:16;100670.69;;;3.79;86.60
43147;BME280;28752;48.266;7.402;2023-01-31T11:12:12;100662.78;;;3.62;86.38
43147;BME280;28752;48.266;7.402;2023-01-31T11:14:37;100647.53;;;3.70;87.14
43147;BME280;28752;48.266;7.402;2023-01-31T11:17:07;100651.22;;;3.85;85.81
43147;BME280;28752;48.266;7.402;2023-01-31T11:19:44;100639.81;;;3.86;85.93
43147;BME280;28752;48.266;7.402;2023-01-31T11:22:30;100622.09;;;3.91;86.43
43147;BME280;28752;48.266;7.402;2023-01-31T11:24:58;100615.25;;;4.06;86.91
43147;BME280;28752;48.266;7.402;2023-01-31T11:27:26;100619.25;;;3.96;83.76
43147;BME280;28752;48.266;7.402;2023-01-31T11:29:54;100614.19;;;4.10;85.40
43147;BME280;28752;48.266;7.402;2023-01-31T11:32:29;100616.44;;;4.35;84.72
43147;BME280;28752;48.266;7.402;2023-01-31T11:35:03;100612.09;;;4.69;83.97
43147;BME280;28752;48.266;7.402;2023-01-31T11:37:29;100595.78;;;5.13;81.38
43147;BME280;28752;48.266;7.402;2023-01-31T11:40:04;100587.84;;;5.63;76.07
43147;BME280;28752;48.266;7.402;2023-01-31T11:45:19;100595.53;;;5.82;73.89
43147;BME280;28752;48.266;7.402;2023-01-31T11:47:48;100570.03;;;5.68;71.26
43147;BME280;28752;48.266;7.402;2023-01-31T11:50:40;100593.06;;;5.95;70.76
43147;BME280;28752;48.266;7.402;2023-01-31T11:55:41;100588.75;;;5.78;70.11
43147;BME280;28752;48.266;7.402;2023-01-31T12:00:55;100565.63;;;5.52;68.68
43147;BME280;28752;48.266;7.402;2023-01-31T12:03:21;100567.59;;;5.49;68.46
43147;BME280;28752;48.266;7.402;2023-01-31T12:05:58;100576.13;;;5.52;68.39
43147;BME280;28752;48.266;7.402;2023-01-31T12:08:28;100549.94;;;5.51;68.36
43147;BME280;28752;48.266;7.402;2023-01-31T12:10:54;100555.13;;;5.52;69.11
43147;BME280;28752;48.266;7.402;2023-01-31T12:13:21;100562.00;;;5.55;68.71
43147;BME280;28752;48.266;7.402;2023-01-31T12:21:33;100568.34;;;5.67;71.30
43147;BME280;28752;48.266;7.402;2023-01-31T12:24:10;100552.50;;;5.68;72.78
43147;BME280;28752;48.266;7.402;2023-01-31T12:26:51;100551.47;;;5.55;74.85
43147;BME280;28752;48.266;7.402;2023-01-31T12:32:37;100544.97;;;5.46;75.88
43147;BME280;28752;48.266;7.402;2023-01-31T12:35:17;100539.09;;;5.25;77.37
43147;BME280;28752;48.266;7.402;2023-01-31T12:37:54;100536.50;;;5.41;77.72
43147;BME280;28752;48.266;7.402;2023-01-31T12:42:58;100543.53;;;5.41;76.74
43147;BME280;28752;48.266;7.402;2023-01-31T12:55:49;100496.22;;;5.73;72.76
43147;BME280;28752;48.266;7.402;2023-01-31T12:58:57;100483.69;;;5.92;73.04
43147;BME280;28752;48.266;7.402;2023-01-31T13:04:33;100479.91;;;6.12;70.92
43147;BME280;28752;48.266;7.402;2023-01-31T13:07:03;100491.25;;;6.13;71.99
43147;BME280;28752;48.266;7.402;2023-01-31T13:09:32;100484.56;;;6.07;71.58
43147;BME280;28752;48.266;7.402;2023-01-31T13:12:16;100484.94;;;6.01;72.05
43147;BME280;28752;48.266;7.402;2023-01-31T13:14:48;100491.16;;;6.00;72.52
43147;BME280;28752;48.266;7.402;2023-01-31T13:17:17;100488.72;;;5.97;72.47
43147;BME280;28752;48.266;7.402;2023-01-31T13:19:53;100487.81;;;5.96;71.83
43147;BME280;28752;48.266;7.402;2023-01-31T13:22:42;100487.50;;;5.86;72.25
43147;BME280;28752;48.266;7.402;2023-01-31T13:25:16;100485.72;;;5.87;72.42
43147;BME280;28752;48.266;7.402;2023-01-31T13:27:52;100478.09;;;5.82;72.82
43147;BME280;28752;48.266;7.402;2023-01-31T13:30:31;100460.44;;;5.84;72.83
43147;BME280;28752;48.266;7.402;2023-01-31T13:32:59;100468.84;;;5.91;72.89
43147;BME280;28752;48.266;7.402;2023-01-31T13:35:32;100448.91;;;5.73;72.25
43147;BME280;28752;48.266;7.402;2023-01-31T13:38:05;100477.19;;;5.83;72.36
43147;BME280;28752;48.266;7.402;2023-01-31T13:40:37;100465.63;;;5.86;71.96
43147;BME280;28752;48.266;7.402;2023-01-31T13:43:11;100464.16;;;5.96;72.12
43147;BME280;28752;48.266;7.402;2023-01-31T13:45:46;100474.16;;;6.05;71.83
43147;BME280;28752;48.266;7.402;2023-01-31T13:50:53;100462.69;;;6.07;71.00
43147;BME280;28752;48.266;7.402;2023-01-31T13:53:34;100446.75;;;5.79;70.57
43147;BME280;28752;48.266;7.402;2023-01-31T13:56:01;100453.34;;;5.86;71.81
43147;BME280;28752;48.266;7.402;2023-01-31T13:58:30;100444.94;;;5.65;72.41
43147;BME280;28752;48.266;7.402;2023-01-31T14:01:03;100438.41;;;5.87;72.57
43147;BME280;28752;48.266;7.402;2023-01-31T14:09:36;100433.03;;;6.04;72.31
43147;BME280;28752;48.266;7.402;2023-01-31T14:14:48;100434.63;;;6.21;71.84
43147;BME280;28752;48.266;7.402;2023-01-31T14:32:32;100443.81;;;6.72;69.15
43147;BME280;28752;48.266;7.402;2023-01-31T14:45:54;100434.00;;;6.88;69.30
43147;BME280;28752;48.266;7.402;2023-01-31T14:59:45;100406.66;;;6.91;66.34
43147;BME280;28752;48.266;7.402;2023-01-31T15:05:20;100410.38;;;7.01;65.58
43147;BME280;28752;48.266;7.402;2023-01-31T15:11:00;100387.13;;;7.08;65.22
43147;BME280;28752;48.266;7.402;2023-01-31T15:13:44;100384.00;;;7.16;65.18
43147;BME280;28752;48.266;7.402;2023-01-31T15:16:19;100388.75;;;7.23;65.54
43147;BME280;28752;48.266;7.402;2023-01-31T15:19:19;100394.91;;;7.37;64.79
43147;BME280;28752;48.266;7.402;2023-01-31T15:21:58;100382.09;;;7.18;62.53
43147;BME280;28752;48.266;7.402;2023-01-31T15:24:30;100393.41;;;6.92;62.91